Time;durP1;ratioP1;P1;durP2;ratioP2;P2;SDS_P1;SDS_P2;PMS_P1;PMS_P2;Temp;Humidity;BMP_temperature;BMP_pressure;BME280_temperature;BME280_humidity;BME280_pressure;Samples;Min_cycle;Max_cycle;Signal;HPM_P1;HPM_P2
2022/09/16 00:00:01;;;;;;;;;;;;;;;25.06;40.70;99821.83;104513;1309;61397;-84
2022/09/16 00:02:26;;;;;;;;;;;;;;;25.05;40.63;99821.70;104494;1308;61328;-83
2022/09/16 00:04:53;;;;;;;;;;;;;;;25.05;40.71;99820.98;104569;1311;59854;-84
2022/09/16 00:07:19;;;;;;;;;;;;;;;25.05;40.64;99825.14;104715;1306;61259;-83
2022/09/16 00:09:44;;;;;;;;;;;;;;;25.05;40.75;99830.70;104739;1311;61381;-83
2022/09/16 00:12:10;;;;;;;;;;;;;;;25.05;40.64;99831.92;104456;1309;61317;-84
2022/09/16 00:14:35;;;;;;;;;;;;;;;25.06;40.80;99829.34;104511;1308;61384;-84
2022/09/16 00:17:01;;;;;;;;;;;;;;;25.06;40.78;99828.11;104396;1311;61365;-83
2022/09/16 00:19:28;;;;;;;;;;;;;;;25.06;40.72;99826.13;104444;1308;61284;-83
2022/09/16 00:21:53;;;;;;;;;;;;;;;25.06;40.74;99827.71;104401;1311;61293;-83
2022/09/16 00:24:19;;;;;;;;;;;;;;;25.06;40.77;99830.78;104484;1309;61294;-85
2022/09/16 00:26:44;;;;;;;;;;;;;;;25.06;40.77;99825.25;104426;1311;61394;-84
2022/09/16 00:29:09;;;;;;;;;;;;;;;25.06;40.79;99820.89;104403;1311;61305;-85
2022/09/16 00:31:35;;;;;;;;;;;;;;;25.05;40.79;99812.48;104485;1311;61200;-83
2022/09/16 00:34:01;;;;;;;;;;;;;;;25.05;40.68;99809.79;104441;1308;61255;-84
2022/09/16 00:36:26;;;;;;;;;;;;;;;25.06;40.79;99806.17;104386;1311;61335;-84
2022/09/16 00:38:53;;;;;;;;;;;;;;;25.05;40.86;99807.27;104402;1311;61382;-82
2022/09/16 00:41:20;;;;;;;;;;;;;;;25.05;40.83;99813.39;104439;1311;61515;-82
2022/09/16 00:43:47;;;;;;;;;;;;;;;25.05;40.90;99820.79;104483;1311;61297;-83
2022/09/16 00:46:13;;;;;;;;;;;;;;;25.05;40.90;99819.19;104488;1308;61404;-84
2022/09/16 00:48:38;;;;;;;;;;;;;;;25.05;40.95;99821.35;104497;1310;61247;-85
2022/09/16 00:51:05;;;;;;;;;;;;;;;25.05;40.91;99824.02;104389;1311;61318;-84
2022/09/16 00:53:36;;;;;;;;;;;;;;;25.05;40.88;99824.05;104499;1311;61378;-82
2022/09/16 00:56:03;;;;;;;;;;;;;;;25.05;40.81;99822.27;104379;1311;74823;-86
2022/09/16 00:58:28;;;;;;;;;;;;;;;25.05;40.89;99825.66;104496;1309;61186;-85
2022/09/16 01:00:54;;;;;;;;;;;;;;;25.05;41.01;99825.27;104382;1311;61357;-85
2022/09/16 01:03:20;;;;;;;;;;;;;;;25.04;40.89;99818.77;104389;1311;61270;-83
2022/09/16 01:05:45;;;;;;;;;;;;;;;25.05;40.82;99817.27;104495;1308;61434;-84
2022/09/16 01:08:11;;;;;;;;;;;;;;;25.05;40.94;99816.89;104545;1308;61383;-86
2022/09/16 01:10:39;;;;;;;;;;;;;;;25.04;40.93;99813.15;104538;1311;61378;-85
2022/09/16 01:13:05;;;;;;;;;;;;;;;25.04;40.98;99811.53;104378;1311;62538;-85
2022/09/16 01:15:35;;;;;;;;;;;;;;;25.04;41.03;99810.61;104475;1311;61163;-84
2022/09/16 01:18:20;;;;;;;;;;;;;;;25.04;40.97;99805.59;104423;1311;74921;-83
2022/09/16 01:20:52;;;;;;;;;;;;;;;25.04;40.94;99808.08;104465;1308;61168;-82
2022/09/16 01:23:18;;;;;;;;;;;;;;;25.04;40.97;99802.36;104488;1311;61263;-83
2022/09/16 01:26:03;;;;;;;;;;;;;;;25.04;41.11;99798.45;104533;1308;73728;-83
2022/09/16 01:28:53;;;;;;;;;;;;;;;25.04;41.05;99795.87;104473;1311;74555;-87
2022/09/16 01:31:37;;;;;;;;;;;;;;;25.04;41.06;99795.36;104434;1308;61233;-84
2022/09/16 01:34:23;;;;;;;;;;;;;;;25.04;41.03;99794.12;104410;1310;61943;-85
2022/09/16 01:37:01;;;;;;;;;;;;;;;25.04;41.11;99801.69;104115;1317;74081;-84
2022/09/16 01:39:28;;;;;;;;;;;;;;;25.04;41.16;99805.95;104187;1316;75542;-84
2022/09/16 01:41:53;;;;;;;;;;;;;;;25.04;41.08;99810.80;104115;1317;61192;-84
2022/09/16 01:44:31;;;;;;;;;;;;;;;25.04;41.09;99810.61;104156;1317;61286;-85
2022/09/16 01:47:03;;;;;;;;;;;;;;;25.05;41.13;99817.60;104135;1317;72742;-84
2022/09/16 01:49:37;;;;;;;;;;;;;;;25.05;41.25;99821.56;104124;1317;74672;-85
2022/09/16 01:52:15;;;;;;;;;;;;;;;25.04;41.23;99821.76;103905;1317;61477;-84
2022/09/16 01:54:42;;;;;;;;;;;;;;;25.04;41.26;99822.73;104161;1317;61554;-83
2022/09/16 01:57:27;;;;;;;;;;;;;;;25.04;41.28;99827.52;103922;1317;73998;-84
2022/09/16 01:59:54;;;;;;;;;;;;;;;25.04;41.15;99824.49;104110;1316;75023;-83
2022/09/16 02:02:22;;;;;;;;;;;;;;;25.05;41.30;99828.23;104167;1317;61310;-84
2022/09/16 02:04:53;;;;;;;;;;;;;;;25.05;41.33;99828.95;104144;1317;61043;-83
2022/09/16 02:07:20;;;;;;;;;;;;;;;25.04;41.28;99831.52;104146;1316;72698;-84
2022/09/16 02:09:48;;;;;;;;;;;;;;;25.04;41.27;99831.88;103957;1317;74641;-84
2022/09/16 02:12:16;;;;;;;;;;;;;;;25.04;41.40;99829.52;104152;1316;61814;-85
2022/09/16 02:14:42;;;;;;;;;;;;;;;25.05;41.29;99826.81;104343;1310;61305;-84
2022/09/16 02:17:09;;;;;;;;;;;;;;;25.04;41.25;99825.20;104482;1308;59329;-84
2022/09/16 02:19:42;;;;;;;;;;;;;;;25.04;41.34;99820.17;104271;1312;75663;-84
2022/09/16 02:22:13;;;;;;;;;;;;;;;25.04;41.28;99817.00;104508;1311;61150;-85
2022/09/16 02:24:40;;;;;;;;;;;;;;;25.04;41.31;99816.42;104404;1311;61151;-84
2022/09/16 02:27:06;;;;;;;;;;;;;;;25.04;41.33;99816.80;104535;1308;72727;-81
2022/09/16 02:29:35;;;;;;;;;;;;;;;25.04;41.31;99823.98;104485;1311;75166;-82
2022/09/16 02:32:01;;;;;;;;;;;;;;;25.04;41.37;99822.40;104495;1308;62320;-83
2022/09/16 02:34:30;;;;;;;;;;;;;;;25.04;41.40;99823.48;104419;1311;61391;-83
2022/09/16 02:36:56;;;;;;;;;;;;;;;25.04;41.37;99819.84;104388;1311;72784;-83
2022/09/16 02:39:27;;;;;;;;;;;;;;;25.04;41.32;99816.45;104523;1308;61238;-82
2022/09/16 02:41:55;;;;;;;;;;;;;;;25.04;41.38;99819.52;104450;1310;61133;-85
2022/09/16 02:44:21;;;;;;;;;;;;;;;25.04;41.33;99815.71;104638;1308;61471;-84
2022/09/16 02:46:53;;;;;;;;;;;;;;;25.04;41.44;99822.40;104650;1311;61380;-84
2022/09/16 02:49:26;;;;;;;;;;;;;;;25.04;41.47;99823.04;104574;1308;75637;-84
2022/09/16 02:52:10;;;;;;;;;;;;;;;25.05;41.43;99826.61;104411;1311;61145;-84
2022/09/16 02:54:39;;;;;;;;;;;;;;;25.05;41.43;99837.20;104526;1308;61195;-83
2022/09/16 02:57:05;;;;;;;;;;;;;;;25.05;41.46;99840.09;104477;1311;73906;-84
2022/09/16 02:59:30;;;;;;;;;;;;;;;25.05;41.54;99839.17;104417;1310;61281;-85
2022/09/16 03:01:57;;;;;;;;;;;;;;;25.05;41.39;99837.75;104508;1308;61301;-84
2022/09/16 03:04:22;;;;;;;;;;;;;;;25.05;41.49;99840.09;104506;1308;61356;-83
2022/09/16 03:06:48;;;;;;;;;;;;;;;25.05;41.50;99840.29;104360;1311;61234;-83
2022/09/16 03:09:14;;;;;;;;;;;;;;;25.05;41.50;99829.48;104572;1308;61384;-83
2022/09/16 03:11:41;;;;;;;;;;;;;;;25.04;41.43;99824.66;104531;1311;76612;-85
2022/09/16 03:14:35;;;;;;;;;;;;;;;25.04;41.57;99826.28;104480;1311;61155;-83
2022/09/16 03:17:18;;;;;;;;;;;;;;;25.04;41.54;99824.12;104246;1314;61134;-83
2022/09/16 03:19:49;;;;;;;;;;;;;;;25.04;41.55;99821.45;104218;1314;73892;-86
2022/09/16 03:22:21;;;;;;;;;;;;;;;25.04;41.73;99815.14;104194;1314;75588;-83
2022/09/16 03:25:07;;;;;;;;;;;;;;;25.04;41.63;99811.95;104226;1314;61526;-86
2022/09/16 03:27:36;;;;;;;;;;;;;;;25.04;41.62;99806.90;103320;1323;61286;-84
2022/09/16 03:30:04;;;;;;;;;;;;;;;25.04;41.58;99810.14;103351;1322;74398;-84
2022/09/16 03:32:44;;;;;;;;;;;;;;;25.04;41.66;99813.23;103318;1323;74822;-84
2022/09/16 03:35:21;;;;;;;;;;;;;;;25.04;41.64;99817.16;103290;1322;61160;-84
2022/09/16 03:37:46;;;;;;;;;;;;;;;25.04;41.65;99821.15;103220;1323;61282;-83
2022/09/16 03:40:13;;;;;;;;;;;;;;;25.03;41.58;99828.74;103251;1323;61275;-83
2022/09/16 03:42:39;;;;;;;;;;;;;;;25.03;41.52;99825.30;103257;1323;61313;-84
2022/09/16 03:45:05;;;;;;;;;;;;;;;25.03;41.69;99824.77;103276;1322;61589;-83
2022/09/16 03:47:30;;;;;;;;;;;;;;;25.03;41.73;99825.51;103253;1323;61277;-84
2022/09/16 03:49:56;;;;;;;;;;;;;;;25.03;41.52;99829.85;103202;1322;61767;-85
2022/09/16 03:52:21;;;;;;;;;;;;;;;25.03;41.64;99828.44;103269;1322;61478;-83
2022/09/16 03:54:47;;;;;;;;;;;;;;;25.02;41.64;99829.38;103834;1316;74685;-83
2022/09/16 03:57:13;;;;;;;;;;;;;;;25.02;41.66;99821.85;103862;1316;61400;-84
2022/09/16 03:59:40;;;;;;;;;;;;;;;25.02;41.73;99822.25;103850;1316;61859;-84
2022/09/16 04:02:07;;;;;;;;;;;;;;;25.01;41.72;99814.16;104137;1316;61295;-82
2022/09/16 04:04:32;;;;;;;;;;;;;;;25.02;41.60;99819.55;103967;1311;61364;-83
2022/09/16 04:06:58;;;;;;;;;;;;;;;25.01;41.58;99817.79;104491;1311;61259;-85
2022/09/16 04:09:23;;;;;;;;;;;;;;;25.01;41.68;99819.05;104500;1310;61410;-82
2022/09/16 04:11:49;;;;;;;;;;;;;;;25.01;41.60;99820.70;104501;1311;61305;-85
2022/09/16 04:14:14;;;;;;;;;;;;;;;25.02;41.49;99825.86;104536;1306;61265;-85
2022/09/16 04:16:40;;;;;;;;;;;;;;;25.01;41.47;99827.20;104392;1311;61415;-87
2022/09/16 04:19:06;;;;;;;;;;;;;;;25.00;41.45;99819.70;104357;1311;61325;-84
2022/09/16 04:21:31;;;;;;;;;;;;;;;24.99;41.38;99811.90;104364;1311;61352;-85
2022/09/16 04:23:57;;;;;;;;;;;;;;;24.98;41.39;99811.27;104339;1312;61402;-87
2022/09/16 04:26:22;;;;;;;;;;;;;;;24.97;41.43;99818.06;104306;1312;61307;-85
2022/09/16 04:28:50;;;;;;;;;;;;;;;24.97;41.41;99821.16;104134;1310;75640;-85
2022/09/16 04:31:16;;;;;;;;;;;;;;;24.96;41.36;99815.09;104142;1311;61486;-85
2022/09/16 04:33:41;;;;;;;;;;;;;;;24.96;41.42;99814.52;104202;1312;61655;-85
2022/09/16 04:36:14;;;;;;;;;;;;;;;24.97;41.38;99817.23;104205;1311;59916;-83
2022/09/16 04:38:39;;;;;;;;;;;;;;;24.97;41.35;99824.24;104214;1313;74646;-86
2022/09/16 04:41:07;;;;;;;;;;;;;;;24.95;41.24;99826.88;104297;1312;61208;-83
2022/09/16 04:43:32;;;;;;;;;;;;;;;24.93;41.24;99827.45;104232;1311;61414;-85
2022/09/16 04:45:58;;;;;;;;;;;;;;;24.90;41.27;99831.66;104134;1311;61309;-84
2022/09/16 04:48:24;;;;;;;;;;;;;;;24.88;41.39;99832.29;104180;1311;61334;-84
2022/09/16 04:50:50;;;;;;;;;;;;;;;24.85;41.29;99844.08;104261;1309;59663;-85
2022/09/16 04:53:16;;;;;;;;;;;;;;;24.84;41.19;99847.84;104189;1308;61343;-83
2022/09/16 04:55:41;;;;;;;;;;;;;;;24.82;41.22;99851.59;104207;1308;63715;-85
2022/09/16 04:58:07;;;;;;;;;;;;;;;24.82;41.31;99856.13;103986;1309;61347;-83
2022/09/16 05:00:32;;;;;;;;;;;;;;;24.81;41.26;99859.83;104234;1308;62326;-83
2022/09/16 05:02:58;;;;;;;;;;;;;;;24.81;41.25;99862.86;104215;1309;60032;-83
2022/09/16 05:05:23;;;;;;;;;;;;;;;24.82;41.29;99863.55;104029;1308;61297;-82
2022/09/16 05:07:49;;;;;;;;;;;;;;;24.81;41.29;99863.92;103792;1309;61259;-83
2022/09/16 05:10:14;;;;;;;;;;;;;;;24.80;41.30;99868.23;104335;1308;61418;-83
2022/09/16 05:12:40;;;;;;;;;;;;;;;24.79;41.26;99872.77;104268;1311;61286;-84
2022/09/16 05:15:06;;;;;;;;;;;;;;;24.78;41.29;99873.09;104256;1309;61300;-83
2022/09/16 05:17:32;;;;;;;;;;;;;;;24.78;41.47;99875.77;104303;1308;59452;-83
2022/09/16 05:19:57;;;;;;;;;;;;;;;24.79;41.31;99878.20;104269;1311;61409;-83
2022/09/16 05:22:23;;;;;;;;;;;;;;;24.78;41.19;99875.55;104365;1308;61274;-84
2022/09/16 05:24:48;;;;;;;;;;;;;;;24.79;41.34;99875.14;104571;1310;61309;-84
2022/09/16 05:27:14;;;;;;;;;;;;;;;24.79;41.28;99874.98;104360;1309;61421;-83
2022/09/16 05:29:39;;;;;;;;;;;;;;;24.77;41.40;99875.16;104179;1311;61290;-84
2022/09/16 05:32:05;;;;;;;;;;;;;;;24.77;41.47;99873.70;104254;1308;61356;-83
2022/09/16 05:34:30;;;;;;;;;;;;;;;24.78;41.35;99871.81;104250;1309;61320;-83
2022/09/16 05:36:56;;;;;;;;;;;;;;;24.79;41.37;99868.09;104265;1309;61302;-84
2022/09/16 05:39:21;;;;;;;;;;;;;;;24.81;41.46;99867.23;104193;1311;59495;-84
2022/09/16 05:41:49;;;;;;;;;;;;;;;24.82;41.34;99864.06;104225;1309;61552;-83
2022/09/16 05:44:15;;;;;;;;;;;;;;;24.82;41.43;99864.77;104216;1310;73226;-85
2022/09/16 05:46:42;;;;;;;;;;;;;;;24.82;41.38;99861.86;104205;1309;59399;-84
2022/09/16 05:49:08;;;;;;;;;;;;;;;24.82;41.31;99860.99;104174;1311;61282;-82
2022/09/16 05:51:33;;;;;;;;;;;;;;;24.83;41.52;99865.38;104286;1308;61874;-83
2022/09/16 05:53:59;;;;;;;;;;;;;;;24.83;41.44;99879.18;104074;1310;61299;-82
2022/09/16 05:56:26;;;;;;;;;;;;;;;24.86;41.61;99880.15;103979;1309;61194;-84
2022/09/16 05:58:55;;;;;;;;;;;;;;;24.91;41.71;99882.77;103920;1311;59494;-82
2022/09/16 06:01:22;;;;;;;;;;;;;;;24.94;41.72;99880.11;104273;1309;61183;-84
2022/09/16 06:03:48;;;;;;;;;;;;;;;24.97;41.87;99879.69;104252;1310;72856;-82
2022/09/16 06:06:18;;;;;;;;;;;;;;;24.97;41.93;99878.48;104261;1310;73708;-82
2022/09/16 06:08:44;;;;;;;;;;;;;;;24.98;41.97;99872.82;104371;1309;60063;-81
2022/09/16 06:11:09;;;;;;;;;;;;;;;24.98;42.01;99872.85;104346;1309;59984;-83
2022/09/16 06:13:35;;;;;;;;;;;;;;;24.99;42.01;99872.73;104410;1308;61501;-83
2022/09/16 06:16:01;;;;;;;;;;;;;;;25.00;42.06;99877.90;104504;1308;62189;-81
2022/09/16 06:18:28;;;;;;;;;;;;;;;24.99;41.89;99888.71;104444;1306;61400;-83
2022/09/16 06:20:54;;;;;;;;;;;;;;;24.99;42.06;99891.09;105231;1308;59166;-83
2022/09/16 06:23:19;;;;;;;;;;;;;;;25.01;41.98;99893.11;105140;1308;59553;-83
2022/09/16 06:25:45;;;;;;;;;;;;;;;25.01;42.05;99888.23;105403;1307;59533;-83
2022/09/16 06:28:10;;;;;;;;;;;;;;;25.01;42.06;99891.58;105223;1307;59182;-83
2022/09/16 06:30:38;;;;;;;;;;;;;;;25.02;42.06;99896.17;104396;1306;59887;-82
2022/09/16 06:33:04;;;;;;;;;;;;;;;25.04;42.16;99894.71;104284;1309;61243;-82
2022/09/16 06:35:29;;;;;;;;;;;;;;;25.06;41.94;99891.45;104330;1308;61403;-83
2022/09/16 06:37:55;;;;;;;;;;;;;;;25.08;42.01;99891.92;104246;1309;59490;-83
2022/09/16 06:40:21;;;;;;;;;;;;;;;25.10;41.89;99888.73;104258;1307;59449;-83
2022/09/16 06:42:47;;;;;;;;;;;;;;;25.11;42.03;99888.20;104301;1309;60016;-84
2022/09/16 06:45:12;;;;;;;;;;;;;;;25.15;42.05;99893.65;104351;1309;61382;-85
2022/09/16 06:47:38;;;;;;;;;;;;;;;25.15;42.12;99893.25;104332;1306;72450;-83
2022/09/16 06:50:04;;;;;;;;;;;;;;;25.16;42.07;99898.02;104298;1308;61370;-84
2022/09/16 06:52:29;;;;;;;;;;;;;;;25.16;42.09;99905.02;104209;1309;61312;-83
2022/09/16 06:54:55;;;;;;;;;;;;;;;25.18;42.23;99904.95;104110;1310;61147;-83
2022/09/16 06:57:22;;;;;;;;;;;;;;;25.20;42.29;99908.36;104155;1308;61418;-83
2022/09/16 06:59:47;;;;;;;;;;;;;;;25.21;42.30;99917.27;104210;1309;61396;-84
2022/09/16 07:02:13;;;;;;;;;;;;;;;25.23;42.32;99915.09;104310;1309;59465;-82
2022/09/16 07:04:39;;;;;;;;;;;;;;;25.25;42.40;99911.85;104302;1308;61202;-82
2022/09/16 07:07:05;;;;;;;;;;;;;;;25.25;42.61;99906.98;103558;1309;61559;-81
2022/09/16 07:09:31;;;;;;;;;;;;;;;25.25;42.59;99906.19;103649;1308;61325;-83
2022/09/16 07:11:58;;;;;;;;;;;;;;;25.27;42.65;99909.27;103557;1309;61319;-82
2022/09/16 07:14:24;;;;;;;;;;;;;;;25.28;42.67;99903.04;103832;1308;63738;-82
2022/09/16 07:16:50;;;;;;;;;;;;;;;25.29;42.62;99907.67;104387;1307;61356;-84
2022/09/16 07:19:15;;;;;;;;;;;;;;;25.30;42.68;99913.54;104347;1307;59596;-81
2022/09/16 07:21:41;;;;;;;;;;;;;;;25.29;42.70;99915.40;104396;1308;61319;-83
2022/09/16 07:24:06;;;;;;;;;;;;;;;25.28;42.55;99926.13;104425;1306;60655;-82
2022/09/16 07:26:32;;;;;;;;;;;;;;;25.29;42.70;99930.92;104354;1308;61256;-83
2022/09/16 07:28:59;;;;;;;;;;;;;;;25.29;42.73;99929.45;103849;1308;59197;-83
2022/09/16 07:31:25;;;;;;;;;;;;;;;25.30;42.74;99929.38;103650;1308;61339;-83
2022/09/16 07:33:52;;;;;;;;;;;;;;;25.31;42.72;99932.73;103839;1309;61323;-83
2022/09/16 07:36:18;;;;;;;;;;;;;;;25.31;42.71;99932.84;103762;1308;61416;-84
2022/09/16 07:38:44;;;;;;;;;;;;;;;25.31;42.68;99933.34;105371;1306;59677;-83
2022/09/16 07:41:20;;;;;;;;;;;;;;;25.33;42.79;99936.11;105220;1309;59684;-83
2022/09/16 07:43:45;;;;;;;;;;;;;;;25.34;42.93;99938.29;105125;1308;64701;-83
2022/09/16 07:46:11;;;;;;;;;;;;;;;25.35;42.80;99938.26;105268;1308;59302;-83
2022/09/16 07:48:37;;;;;;;;;;;;;;;25.35;42.77;99935.02;105333;1308;59608;-83
2022/09/16 07:51:04;;;;;;;;;;;;;;;25.36;42.95;99936.50;104980;1309;59560;-83
2022/09/16 07:53:30;;;;;;;;;;;;;;;25.37;42.73;99934.05;103862;1308;61406;-83
2022/09/16 07:55:55;;;;;;;;;;;;;;;25.38;42.81;99929.83;103965;1309;61311;-83
2022/09/16 07:58:21;;;;;;;;;;;;;;;25.39;42.70;99935.82;103835;1309;60008;-83
2022/09/16 08:00:49;;;;;;;;;;;;;;;25.40;42.70;99940.79;103861;1308;61376;-83
2022/09/16 08:03:15;;;;;;;;;;;;;;;25.41;42.73;99932.55;103756;1309;72838;-82
2022/09/16 08:05:41;;;;;;;;;;;;;;;25.42;42.75;99937.83;103889;1309;63552;-82
2022/09/16 08:08:07;;;;;;;;;;;;;;;25.44;42.81;99935.89;104401;1308;61252;-83
2022/09/16 08:10:35;;;;;;;;;;;;;;;25.46;42.63;99935.89;103683;1308;61265;-85
2022/09/16 08:13:01;;;;;;;;;;;;;;;25.47;42.64;99935.77;103837;1306;61269;-83
2022/09/16 08:15:27;;;;;;;;;;;;;;;25.48;42.52;99928.27;103569;1309;61298;-83
2022/09/16 08:17:52;;;;;;;;;;;;;;;25.50;42.60;99933.28;103696;1309;61394;-83
2022/09/16 08:20:18;;;;;;;;;;;;;;;25.50;42.43;99929.13;103702;1309;61476;-82
2022/09/16 08:22:44;;;;;;;;;;;;;;;25.51;42.42;99926.16;103813;1308;61262;-83
2022/09/16 08:25:10;;;;;;;;;;;;;;;25.50;42.30;99927.88;103892;1308;72705;-82
2022/09/16 08:27:36;;;;;;;;;;;;;;;25.49;42.36;99925.95;103817;1308;61301;-82
2022/09/16 08:30:02;;;;;;;;;;;;;;;25.50;42.07;99932.41;103817;1309;61387;-83
2022/09/16 08:32:27;;;;;;;;;;;;;;;25.49;42.20;99927.95;103968;1309;61292;-81
2022/09/16 08:34:53;;;;;;;;;;;;;;;25.49;42.07;99928.48;103917;1308;61324;-86
2022/09/16 08:37:18;;;;;;;;;;;;;;;25.49;42.05;99929.60;103787;1308;61309;-82
2022/09/16 08:39:45;;;;;;;;;;;;;;;25.49;41.94;99931.73;103978;1307;61426;-82
2022/09/16 08:42:17;;;;;;;;;;;;;;;25.50;41.90;99925.21;103847;1309;61434;-83
2022/09/16 08:45:01;;;;;;;;;;;;;;;25.51;41.92;99920.39;103949;1309;61300;-83
2022/09/16 08:47:33;;;;;;;;;;;;;;;25.52;41.85;99924.78;103818;1307;73877;-84
2022/09/16 08:50:00;;;;;;;;;;;;;;;25.52;41.93;99931.77;104036;1309;74810;-83
2022/09/16 08:52:28;;;;;;;;;;;;;;;25.53;41.80;99933.50;103890;1307;61192;-85
2022/09/16 08:54:58;;;;;;;;;;;;;;;25.54;41.61;99935.73;103780;1308;61275;-82
2022/09/16 08:57:28;;;;;;;;;;;;;;;25.54;41.70;99941.10;104176;1307;73160;-82
2022/09/16 08:59:57;;;;;;;;;;;;;;;25.57;41.72;99932.21;103819;1307;76274;-81
2022/09/16 09:02:26;;;;;;;;;;;;;;;25.59;41.85;99929.55;105220;1308;60222;-84
2022/09/16 09:04:52;;;;;;;;;;;;;;;25.64;41.81;99927.34;104109;1309;61362;-84
2022/09/16 09:07:25;;;;;;;;;;;;;;;25.68;41.80;99931.02;103960;1308;61213;-83
2022/09/16 09:09:56;;;;;;;;;;;;;;;25.74;41.75;99932.98;103957;1309;75950;-83
2022/09/16 09:12:25;;;;;;;;;;;;;;;25.76;41.78;99925.36;103853;1309;61189;-83
2022/09/16 09:15:04;;;;;;;;;;;;;;;25.78;41.65;99929.67;103853;1306;61399;-83
2022/09/16 09:17:34;;;;;;;;;;;;;;;25.79;41.58;99921.67;103696;1308;73869;-83
2022/09/16 09:20:20;;;;;;;;;;;;;;;25.80;41.27;99915.05;103932;1307;74755;-82
2022/09/16 09:22:48;;;;;;;;;;;;;;;25.81;40.90;99918.92;103456;1308;61154;-82
2022/09/16 09:25:17;;;;;;;;;;;;;;;25.81;40.94;99918.30;103847;1309;62106;-82
2022/09/16 09:28:12;;;;;;;;;;;;;;;25.83;41.06;99919.95;103866;1308;74373;-81
2022/09/16 09:30:38;;;;;;;;;;;;;;;25.83;40.84;99915.24;103162;1315;74863;-82
2022/09/16 09:33:22;;;;;;;;;;;;;;;25.83;40.71;99910.41;104707;1314;59966;-82
2022/09/16 09:35:48;;;;;;;;;;;;;;;25.83;40.62;99916.16;104677;1316;59570;-81
2022/09/16 09:38:28;;;;;;;;;;;;;;;25.84;40.68;99917.64;104731;1314;59748;-80
2022/09/16 09:40:56;;;;;;;;;;;;;;;25.87;40.53;99910.99;104608;1314;66315;-82
2022/09/16 09:43:32;;;;;;;;;;;;;;;25.88;40.61;99906.97;104599;1314;59844;-81
2022/09/16 09:46:00;;;;;;;;;;;;;;;25.88;40.33;99900.66;104756;1314;59239;-82
2022/09/16 09:48:29;;;;;;;;;;;;;;;25.88;40.35;99901.93;104692;1314;65554;-82
2022/09/16 09:50:54;;;;;;;;;;;;;;;25.88;40.43;99908.42;104649;1315;64912;-82
2022/09/16 09:53:24;;;;;;;;;;;;;;;25.87;40.37;99910.30;104753;1314;59237;-82
2022/09/16 09:55:54;;;;;;;;;;;;;;;25.86;40.46;99915.05;104618;1316;59283;-82
2022/09/16 09:58:23;;;;;;;;;;;;;;;25.87;40.41;99922.48;104685;1314;63925;-82
2022/09/16 10:00:51;;;;;;;;;;;;;;;25.89;40.25;99922.02;100835;1315;3311226;-82
2022/09/16 10:03:18;;;;;;;;;;;;;;;25.90;40.15;99923.63;102854;1315;61294;-83
2022/09/16 10:05:44;;;;;;;;;;;;;;;25.92;40.25;99919.33;102768;1316;61417;-82
2022/09/16 10:08:18;;;;;;;;;;;;;;;25.93;40.07;99921.34;105027;1306;59534;-82
2022/09/16 10:10:47;;;;;;;;;;;;;;;25.93;40.01;99929.61;105051;1306;64907;-83
2022/09/16 10:13:12;;;;;;;;;;;;;;;25.93;39.92;99935.73;105304;1307;59394;-83
2022/09/16 10:15:38;;;;;;;;;;;;;;;25.93;39.94;99940.95;105227;1308;59473;-82
2022/09/16 10:18:08;;;;;;;;;;;;;;;25.94;39.76;99946.15;105189;1309;59496;-82
2022/09/16 10:20:37;;;;;;;;;;;;;;;25.94;39.57;99942.54;105155;1308;67012;-82
2022/09/16 10:23:03;;;;;;;;;;;;;;;25.95;39.57;99947.54;104916;1309;61331;-82
2022/09/16 10:25:29;;;;;;;;;;;;;;;25.95;39.49;99946.08;104383;1308;61306;-83
2022/09/16 10:27:57;;;;;;;;;;;;;;;25.95;39.35;99941.38;104640;1309;59344;-83
2022/09/16 10:30:22;;;;;;;;;;;;;;;25.95;39.24;99941.72;104237;1308;61515;-83
2022/09/16 10:32:58;;;;;;;;;;;;;;;25.95;39.21;99947.30;104178;1309;61486;-83
2022/09/16 10:35:24;;;;;;;;;;;;;;;25.97;39.00;99946.40;104279;1309;60662;-81
2022/09/16 10:37:53;;;;;;;;;;;;;;;25.97;38.98;99947.48;104274;1309;61097;-81
2022/09/16 10:40:22;;;;;;;;;;;;;;;25.96;38.72;99947.03;104290;1309;74896;-84
2022/09/16 10:42:47;;;;;;;;;;;;;;;25.95;38.74;99941.54;104383;1309;61353;-83
2022/09/16 10:45:14;;;;;;;;;;;;;;;25.94;38.62;99943.21;104196;1309;61311;-83
2022/09/16 10:47:40;;;;;;;;;;;;;;;25.93;38.62;99941.15;104349;1309;61907;-82
2022/09/16 10:50:06;;;;;;;;;;;;;;;25.93;38.57;99943.71;104276;1309;61367;-82
2022/09/16 10:52:39;;;;;;;;;;;;;;;25.93;38.38;99940.67;104379;1309;61301;-83
2022/09/16 10:55:37;;;;;;;;;;;;;;;25.93;38.30;99938.70;104354;1308;61138;-83
2022/09/16 10:58:20;;;;;;;;;;;;;;;25.95;38.21;99934.52;104332;1308;73803;-84
2022/09/16 11:00:49;;;;;;;;;;;;;;;25.98;38.04;99936.96;104477;1309;74876;-83
2022/09/16 11:03:20;;;;;;;;;;;;;;;25.99;38.13;99932.16;104389;1308;61147;-83
2022/09/16 11:05:52;;;;;;;;;;;;;;;25.98;38.07;99934.16;104595;1307;61124;-83
2022/09/16 11:08:42;;;;;;;;;;;;;;;25.99;38.07;99934.59;104349;1306;72766;-84
2022/09/16 11:11:27;;;;;;;;;;;;;;;26.02;37.77;99930.01;104495;1308;73646;-83
2022/09/16 11:13:58;;;;;;;;;;;;;;;26.02;37.90;99928.34;104623;1309;61139;-81
2022/09/16 11:16:24;;;;;;;;;;;;;;;26.04;37.96;99922.45;104542;1308;61269;-82
2022/09/16 11:19:08;;;;;;;;;;;;;;;26.07;38.00;99927.51;104434;1309;61295;-82
2022/09/16 11:21:44;;;;;;;;;;;;;;;26.08;37.74;99920.95;104470;1308;74807;-82
2022/09/16 11:24:48;;;;;;;;;;;;;;;26.08;37.71;99919.48;104327;1308;62209;-84
2022/09/16 11:27:14;;;;;;;;;;;;;;;26.08;37.80;99916.45;103954;1314;62199;-82
2022/09/16 11:29:44;;;;;;;;;;;;;;;26.08;37.68;99913.20;103858;1316;61186;-82
2022/09/16 11:32:29;;;;;;;;;;;;;;;26.07;37.58;99911.95;103885;1316;74825;-83
2022/09/16 11:35:03;;;;;;;;;;;;;;;26.09;37.48;99906.54;103968;1314;61308;-83
2022/09/16 11:37:31;;;;;;;;;;;;;;;26.08;37.35;99899.61;104041;1314;61454;-83
2022/09/16 11:40:09;;;;;;;;;;;;;;;26.07;37.28;99896.84;103934;1314;74119;-83
2022/09/16 11:42:37;;;;;;;;;;;;;;;26.05;37.28;99891.45;103913;1314;74979;-83
2022/09/16 11:45:05;;;;;;;;;;;;;;;26.03;37.51;99888.48;104015;1314;61391;-82
2022/09/16 11:47:49;;;;;;;;;;;;;;;26.01;37.42;99889.39;104039;1314;60426;-83
2022/09/16 11:50:27;;;;;;;;;;;;;;;25.99;37.34;99889.77;103828;1315;73842;-82
2022/09/16 11:53:00;;;;;;;;;;;;;;;25.97;37.59;99890.89;103753;1315;74784;-83
2022/09/16 11:55:32;;;;;;;;;;;;;;;25.95;37.57;99888.87;103761;1315;61253;-83
2022/09/16 11:57:58;;;;;;;;;;;;;;;25.94;37.77;99883.21;103921;1309;61396;-82
2022/09/16 12:00:23;;;;;;;;;;;;;;;25.93;37.83;99884.02;104253;1309;62453;-83
2022/09/16 12:03:00;;;;;;;;;;;;;;;25.92;37.76;99886.98;104259;1309;61313;-83
2022/09/16 12:06:02;;;;;;;;;;;;;;;25.91;37.88;99878.11;104386;1309;61150;-83
2022/09/16 12:09:00;;;;;;;;;;;;;;;25.90;37.96;99870.48;104212;1309;61568;-84
2022/09/16 12:11:36;;;;;;;;;;;;;;;25.89;37.86;99871.54;104189;1309;73153;-84
2022/09/16 12:14:08;;;;;;;;;;;;;;;25.88;38.03;99874.81;104305;1309;74965;-84
2022/09/16 12:16:36;;;;;;;;;;;;;;;25.87;38.14;99871.52;104369;1308;61237;-84
2022/09/16 12:19:03;;;;;;;;;;;;;;;25.87;38.15;99869.44;104231;1310;61161;-82
2022/09/16 12:21:55;;;;;;;;;;;;;;;25.86;38.13;99869.84;104412;1309;72885;-82
2022/09/16 12:24:34;;;;;;;;;;;;;;;25.86;38.13;99871.69;104388;1309;73520;-84
2022/09/16 12:27:05;;;;;;;;;;;;;;;25.84;38.22;99868.75;104537;1309;61227;-84
2022/09/16 12:29:30;;;;;;;;;;;;;;;25.84;38.19;99867.67;104297;1308;61324;-84
2022/09/16 12:32:19;;;;;;;;;;;;;;;25.84;38.27;99868.30;104322;1307;61227;-83
2022/09/16 12:34:48;;;;;;;;;;;;;;;25.83;38.44;99862.29;104445;1309;75059;-83
2022/09/16 12:37:16;;;;;;;;;;;;;;;25.82;38.29;99865.26;104516;1308;61269;-83
2022/09/16 12:39:42;;;;;;;;;;;;;;;25.82;38.34;99862.92;104602;1309;61641;-84
2022/09/16 12:42:27;;;;;;;;;;;;;;;25.81;38.26;99860.73;104498;1309;61300;-83
2022/09/16 12:44:53;;;;;;;;;;;;;;;25.79;38.20;99860.48;104254;1313;74802;-84